Time;durP1;ratioP1;P1;durP2;ratioP2;P2;SDS_P1;SDS_P2;PMS_P1;PMS_P2;Temp;Humidity;BMP_temperature;BMP_pressure;BME280_temperature;BME280_humidity;BME280_pressure;Samples;Min_cycle;Max_cycle;Signal;HPM_P1;HPM_P2
2021/03/13 00:00:33;;;;;;;1999.90;999.90;;;18.00;99.50;;;;;;5093248;28;20172;-58
2021/03/13 00:15:40;;;;;;;1999.90;999.90;;;17.90;99.10;;;;;;5110821;27;21052;-42
2021/03/13 00:18:08;;;;;;;1999.90;999.90;;;17.80;99.10;;;;;;5110681;28;20171;-42
2021/03/13 00:20:36;;;;;;;1999.90;999.90;;;17.80;98.90;;;;;;5110593;28;20250;-42
2021/03/13 00:23:03;;;;;;;1999.90;999.90;;;17.70;99.20;;;;;;5110483;28;20191;-42
2021/03/13 00:25:31;;;;;;;1999.90;999.90;;;17.60;99.20;;;;;;5110469;28;20248;-56
2021/03/13 00:27:59;;;;;;;1999.90;999.90;;;17.60;99.30;;;;;;5110468;28;20163;-42
2021/03/13 00:30:27;;;;;;;1999.90;999.90;;;17.50;99.80;;;;;;5110691;28;20577;-55
2021/03/13 00:33:01;;;;;;;1999.90;999.90;;;17.50;99.90;;;;;;5110432;28;20163;-42
2021/03/13 00:35:29;;;;;;;1999.90;999.90;;;17.50;99.90;;;;;;5110397;28;20523;-42
2021/03/13 00:37:57;;;;;;;1999.90;999.90;;;17.40;99.90;;;;;;5110264;28;20179;-42
2021/03/13 00:40:26;;;;;;;1999.90;999.90;;;17.40;99.90;;;;;;5110377;28;20178;-41
2021/03/13 00:42:53;;;;;;;1999.90;999.90;;;17.40;99.90;;;;;;5110155;28;20171;-57
2021/03/13 00:45:22;;;;;;;1999.90;999.90;;;17.30;99.90;;;;;;5110287;28;20675;-42
2021/03/13 00:47:49;;;;;;;1999.90;999.90;;;17.30;99.90;;;;;;5110383;28;20160;-41
2021/03/13 00:50:18;;;;;;;1999.90;999.90;;;17.30;99.90;;;;;;5110092;28;20216;-42
2021/03/13 00:52:46;;;;;;;1999.90;999.90;;;17.30;99.90;;;;;;5109994;28;20248;-41
2021/03/13 00:55:13;;;;;;;1999.90;999.90;;;17.30;99.90;;;;;;5109959;28;20163;-42
2021/03/13 00:57:40;;;;;;;1999.90;999.90;;;17.20;99.90;;;;;;5109929;28;20504;-41
2021/03/13 01:00:10;;;;;;;1999.90;999.90;;;17.30;99.90;;;;;;5109843;28;20174;-41
2021/03/13 01:02:36;;;;;;;1999.90;999.90;;;17.20;99.90;;;;;;5109797;28;20710;-42
2021/03/13 01:05:05;;;;;;;1999.90;999.90;;;17.20;99.90;;;;;;5109693;28;20195;-41
2021/03/13 01:07:33;;;;;;;1999.90;999.90;;;17.30;99.90;;;;;;5109733;28;20523;-41
2021/03/13 01:10:01;;;;;;;1999.90;999.90;;;17.30;99.90;;;;;;5109682;28;20181;-41
2021/03/13 01:12:28;;;;;;;1999.90;999.90;;;17.40;99.90;;;;;;5109657;28;20225;-41
2021/03/13 01:14:55;;;;;;;1999.90;999.90;;;17.40;99.90;;;;;;5104979;28;20750;-41
2021/03/13 01:17:22;;;;;;;1999.90;999.90;;;17.40;99.90;;;;;;5096000;28;20160;-41
2021/03/13 01:19:49;;;;;;;1999.90;999.90;;;17.40;99.90;;;;;;5095927;28;20203;-41
2021/03/13 01:22:15;;;;;;;1999.90;999.90;;;17.40;99.90;;;;;;5095871;28;20213;-41
2021/03/13 01:24:42;;;;;;;1999.90;999.90;;;17.40;99.90;;;;;;5095704;28;20212;-42
2021/03/13 01:27:10;;;;;;;1999.90;999.90;;;17.40;99.90;;;;;;5095737;28;20576;-41
2021/03/13 01:29:37;;;;;;;1999.90;999.90;;;17.40;99.90;;;;;;5095688;28;20176;-41
2021/03/13 01:32:04;;;;;;;1999.90;999.90;;;17.40;99.90;;;;;;5095748;28;20171;-41
2021/03/13 01:34:32;;;;;;;1999.90;999.90;;;17.30;99.90;;;;;;5095608;28;20172;-41
2021/03/13 01:36:59;;;;;;;1999.90;999.90;;;17.40;99.90;;;;;;5095507;28;20175;-41
2021/03/13 01:39:27;;;;;;;1999.90;999.90;;;17.30;99.90;;;;;;5095518;28;20164;-41
2021/03/13 01:41:53;;;;;;;1999.90;999.90;;;17.30;99.90;;;;;;5095635;28;20171;-55
2021/03/13 01:44:20;;;;;;;1999.90;999.90;;;17.30;99.90;;;;;;5095269;28;20284;-41
2021/03/13 01:46:47;;;;;;;1999.90;999.90;;;17.20;99.90;;;;;;5095271;28;20172;-43
2021/03/13 01:49:29;;;;;;;1999.90;999.90;;;17.20;99.90;;;;;;5095196;28;20190;-41
2021/03/13 01:51:56;;;;;;;1999.90;999.90;;;17.20;99.90;;;;;;5095318;28;20229;-41
2021/03/13 01:54:24;;;;;;;1999.90;999.90;;;17.20;99.90;;;;;;5095375;28;20530;-42
2021/03/13 01:56:52;;;;;;;1999.90;999.90;;;17.10;99.90;;;;;;5095431;28;20186;-41
2021/03/13 01:59:22;;;;;;;1999.90;999.90;;;17.10;99.90;;;;;;5095023;28;20164;-41
2021/03/13 02:01:49;;;;;;;1999.90;999.90;;;17.10;99.90;;;;;;5094965;28;20170;-41
2021/03/13 02:04:17;;;;;;;1999.90;999.90;;;17.10;99.90;;;;;;5094894;28;20195;-41
2021/03/13 02:07:02;;;;;;;1999.90;999.90;;;17.10;99.90;;;;;;5094914;28;20179;-41
2021/03/13 02:09:47;;;;;;;1999.90;999.90;;;17.10;99.90;;;;;;5095098;28;20680;-42
2021/03/13 02:12:44;;;;;;;1999.90;999.90;;;17.00;99.90;;;;;;5093611;28;20236;-41
2021/03/13 02:15:29;;;;;;;1999.90;999.90;;;17.00;99.90;;;;;;5087082;28;20226;-41
2021/03/13 02:18:21;;;;;;;1999.90;999.90;;;16.90;99.90;;;;;;5094620;28;20214;-41
2021/03/13 02:21:17;;;;;;;1999.90;999.90;;;16.80;99.90;;;;;;5094355;28;20176;-41
2021/03/13 02:35:15;;;;;;;1999.90;999.90;;;16.70;99.90;;;;;;5110722;27;20502;-42
2021/03/13 02:37:46;;;;;;;1999.90;999.90;;;16.70;99.90;;;;;;5110691;28;20648;-43
2021/03/13 02:40:16;;;;;;;1999.90;999.90;;;16.80;99.90;;;;;;5110613;28;20592;-42
2021/03/13 02:42:55;;;;;;;1999.90;999.90;;;16.80;99.90;;;;;;5110619;28;20202;-43
2021/03/13 02:45:27;;;;;;;1999.90;999.90;;;16.80;99.90;;;;;;5110380;28;20151;-42
2021/03/13 02:47:55;;;;;;;1999.90;999.90;;;16.70;99.90;;;;;;5110290;28;20159;-42
2021/03/13 02:50:22;;;;;;;1999.90;999.90;;;16.60;99.90;;;;;;5110306;28;20621;-42
2021/03/13 02:52:52;;;;;;;1999.90;999.90;;;16.50;99.90;;;;;;5110237;28;20163;-42
2021/03/13 02:55:20;;;;;;;1999.90;999.90;;;16.60;99.90;;;;;;5110240;28;20159;-42
2021/03/13 02:57:50;;;;;;;1999.90;999.90;;;16.50;99.90;;;;;;5110119;28;20209;-44
2021/03/13 03:00:19;;;;;;;1999.90;999.90;;;16.40;99.90;;;;;;5110259;28;20164;-42
2021/03/13 03:02:54;;;;;;;1999.90;999.90;;;16.40;99.90;;;;;;5110084;28;20206;-42
2021/03/13 03:05:24;;;;;;;1999.90;999.90;;;16.40;99.90;;;;;;5110002;28;20190;-42
2021/03/13 03:07:54;;;;;;;1999.90;999.90;;;16.40;99.90;;;;;;5109909;28;20252;-42
2021/03/13 03:10:27;;;;;;;1999.90;999.90;;;16.40;99.90;;;;;;5109854;28;20168;-42
2021/03/13 03:12:56;;;;;;;1999.90;999.90;;;16.40;99.90;;;;;;5109742;28;20164;-47
2021/03/13 03:15:28;;;;;;;1999.90;999.90;;;16.40;99.90;;;;;;5109666;28;20641;-42
2021/03/13 03:17:58;;;;;;;1999.90;999.90;;;16.40;99.90;;;;;;5109702;28;20164;-42
2021/03/13 03:20:26;;;;;;;1999.90;999.90;;;16.30;99.90;;;;;;5109677;28;20170;-43
2021/03/13 03:22:54;;;;;;;1999.90;999.90;;;16.40;99.90;;;;;;5109564;28;20195;-42
2021/03/13 03:25:21;;;;;;;1999.90;999.90;;;16.40;99.90;;;;;;5109604;28;20250;-42
2021/03/13 03:27:50;;;;;;;1999.90;999.90;;;16.30;99.90;;;;;;5109649;28;20167;-42
2021/03/13 03:30:23;;;;;;;1999.90;999.90;;;16.30;99.90;;;;;;5109560;28;20168;-57
2021/03/13 03:32:50;;;;;;;1999.90;999.90;;;16.20;99.90;;;;;;5109257;28;20163;-42
2021/03/13 03:35:18;;;;;;;1999.90;999.90;;;16.10;99.90;;;;;;5099776;28;20196;-57
2021/03/13 03:37:46;;;;;;;1999.90;999.90;;;16.10;99.90;;;;;;5095910;28;20199;-43
2021/03/13 03:40:17;;;;;;;1999.90;999.90;;;16.20;99.90;;;;;;5095627;28;20214;-43
2021/03/13 03:42:50;;;;;;;1999.90;999.90;;;16.20;99.90;;;;;;5095631;28;20226;-42
2021/03/13 03:45:20;;;;;;;1999.90;999.90;;;16.20;99.90;;;;;;5095777;28;20163;-43
2021/03/13 03:47:49;;;;;;;1999.90;999.90;;;16.20;99.90;;;;;;5095639;28;20183;-42
2021/03/13 03:50:18;;;;;;;1999.90;999.90;;;16.20;99.90;;;;;;5095709;28;20167;-42
2021/03/13 03:52:48;;;;;;;1999.90;999.90;;;16.20;99.90;;;;;;5095489;28;20574;-45
2021/03/13 03:55:20;;;;;;;1999.90;999.90;;;16.20;99.90;;;;;;5095427;28;20179;-56
2021/03/13 03:57:47;;;;;;;1999.90;999.90;;;16.20;99.90;;;;;;5095545;28;20163;-43
2021/03/13 04:00:16;;;;;;;1999.90;999.90;;;16.20;99.90;;;;;;5095250;28;20641;-43
2021/03/13 04:02:46;;;;;;;1999.90;999.90;;;16.20;99.90;;;;;;5095229;28;20219;-43
2021/03/13 04:05:16;;;;;;;1999.90;999.90;;;16.20;99.90;;;;;;5095160;28;20683;-43
2021/03/13 04:07:43;;;;;;;1999.90;999.90;;;16.20;99.90;;;;;;5095240;28;20171;-42
2021/03/13 04:10:11;;;;;;;1999.90;999.90;;;16.20;99.90;;;;;;5094979;28;20701;-43
2021/03/13 04:12:40;;;;;;;1999.90;999.90;;;16.20;99.90;;;;;;5095394;28;20498;-43
2021/03/13 04:15:11;;;;;;;1999.90;999.90;;;16.10;99.90;;;;;;5095090;28;20171;-43
2021/03/13 04:17:39;;;;;;;1999.90;999.90;;;16.10;99.90;;;;;;5095070;28;20213;-42
2021/03/13 04:20:08;;;;;;;1999.90;999.90;;;16.30;99.90;;;;;;5094893;28;20194;-43
2021/03/13 04:22:37;;;;;;;1999.90;999.90;;;16.10;99.90;;;;;;5094701;28;20238;-43
2021/03/13 04:25:06;;;;;;;1999.90;999.90;;;16.10;99.90;;;;;;5094887;28;20168;-42
2021/03/13 04:27:33;;;;;;;1999.90;999.90;;;16.20;99.90;;;;;;5094837;28;20178;-41
2021/03/13 04:30:01;;;;;;;1999.90;999.90;;;16.20;99.90;;;;;;5094856;28;20549;-42
2021/03/13 04:32:29;;;;;;;1999.90;999.90;;;16.10;99.90;;;;;;5094820;28;20168;-42
2021/03/13 04:34:56;;;;;;;1999.90;999.90;;;16.10;99.90;;;;;;5094582;28;20735;-42
2021/03/13 04:37:24;;;;;;;1999.90;999.90;;;16.10;99.90;;;;;;5094812;28;20171;-42
2021/03/13 04:39:51;;;;;;;1999.90;999.90;;;16.00;99.90;;;;;;5094634;28;20250;-47
2021/03/13 04:42:18;;;;;;;1999.90;999.90;;;16.00;99.90;;;;;;5094532;28;20221;-44
2021/03/13 04:44:45;;;;;;;1999.90;999.90;;;15.90;99.90;;;;;;5094537;28;20600;-54
2021/03/13 04:47:12;;;;;;;1999.90;999.90;;;15.90;99.90;;;;;;5093561;28;20168;-46
2021/03/13 04:49:39;;;;;;;1999.90;999.90;;;15.90;99.90;;;;;;5094525;28;20171;-42
2021/03/13 04:52:06;;;;;;;1999.90;999.90;;;16.00;99.90;;;;;;5094406;28;20226;-42
2021/03/13 04:54:33;;;;;;;1999.90;999.90;;;16.10;99.90;;;;;;5094372;28;20610;-42
2021/03/13 04:57:00;;;;;;;1999.90;999.90;;;16.00;99.90;;;;;;5094244;28;20714;-43
2021/03/13 04:59:27;;;;;;;1999.90;999.90;;;16.10;99.90;;;;;;5094257;28;20172;-42
2021/03/13 05:01:54;;;;;;;1999.90;999.90;;;16.10;99.90;;;;;;5094185;28;20540;-57
2021/03/13 05:04:21;;;;;;;1999.90;999.90;;;16.10;99.90;;;;;;5093942;28;20212;-42
2021/03/13 05:06:47;;;;;;;1999.90;999.90;;;16.00;99.90;;;;;;5094103;28;20693;-42
2021/03/13 05:09:14;;;;;;;1999.90;999.90;;;16.00;99.90;;;;;;5094032;28;20163;-42
2021/03/13 05:11:41;;;;;;;1999.90;999.90;;;16.00;99.90;;;;;;5093994;28;20167;-42
2021/03/13 05:14:08;;;;;;;1999.90;999.90;;;16.00;99.90;;;;;;5093933;28;20217;-42
2021/03/13 05:16:34;;;;;;;1999.90;999.90;;;16.10;99.90;;;;;;5093844;28;20175;-41
2021/03/13 05:19:01;;;;;;;1999.90;999.90;;;16.10;99.90;;;;;;5093851;28;20191;-41
2021/03/13 05:21:28;;;;;;;1999.90;999.90;;;16.00;99.90;;;;;;5093624;28;20163;-42
2021/03/13 05:23:55;;;;;;;1999.90;999.90;;;16.00;99.90;;;;;;5093866;28;20203;-44
2021/03/13 05:26:22;;;;;;;1999.90;999.90;;;16.10;99.90;;;;;;5093525;28;20251;-43
2021/03/13 05:28:50;;;;;;;1999.90;999.90;;;16.10;99.90;;;;;;5093526;28;20190;-43
2021/03/13 05:31:17;;;;;;;1999.90;999.90;;;16.20;99.90;;;;;;5093488;28;20164;-43
2021/03/13 05:33:44;;;;;;;1999.90;999.90;;;16.20;99.90;;;;;;5093132;28;20224;-45
2021/03/13 05:36:11;;;;;;;1999.90;999.90;;;16.20;99.90;;;;;;5093437;28;20156;-44
2021/03/13 05:38:38;;;;;;;1999.90;999.90;;;16.30;99.90;;;;;;5093347;28;20179;-42
2021/03/13 05:41:05;;;;;;;1999.90;999.90;;;16.30;99.90;;;;;;5075236;28;20176;-42
2021/03/13 05:43:34;;;;;;;1999.90;999.90;;;16.30;99.90;;;;;;5093428;28;20191;-43
2021/03/13 05:46:02;;;;;;;1999.90;999.90;;;16.50;99.90;;;;;;5093190;28;20168;-42
2021/03/13 05:48:31;;;;;;;1999.90;999.90;;;16.60;99.90;;;;;;5093568;28;20262;-42
2021/03/13 05:51:00;;;;;;;1999.90;999.90;;;16.70;99.90;;;;;;5093411;28;20164;-43
2021/03/13 05:53:28;;;;;;;1999.90;999.90;;;16.90;99.90;;;;;;5093261;28;20258;-45
2021/03/13 05:55:55;;;;;;;1999.90;999.90;;;17.00;99.90;;;;;;5093145;28;20175;-43
2021/03/13 05:58:23;;;;;;;1999.90;999.90;;;17.10;99.90;;;;;;5092611;28;20180;-42
2021/03/13 06:00:50;;;;;;;1999.90;999.90;;;17.30;99.90;;;;;;5093120;28;20167;-45
2021/03/13 06:03:17;;;;;;;1999.90;999.90;;;17.50;99.90;;;;;;5092945;28;20223;-48
2021/03/13 06:05:48;;;;;;;1999.90;999.90;;;17.70;99.90;;;;;;5092827;28;20190;-45
2021/03/13 06:08:16;;;;;;;1999.90;999.90;;;17.80;99.90;;;;;;5092991;28;20590;-46
2021/03/13 06:10:44;;;;;;;1999.90;999.90;;;17.90;99.90;;;;;;5093370;28;20175;-44
2021/03/13 06:13:11;;;;;;;1999.90;999.90;;;18.00;99.90;;;;;;5093168;28;20160;-53
2021/03/13 06:15:38;;;;;;;1999.90;999.90;;;18.10;99.90;;;;;;5093133;28;20164;-48
2021/03/13 06:18:05;;;;;;;1999.90;999.90;;;18.20;99.60;;;;;;5093082;28;20630;-45
2021/03/13 06:20:36;;;;;;;1999.90;999.90;;;18.30;99.30;;;;;;5093206;28;20172;-45
2021/03/13 06:23:09;;;;;;;1999.90;999.90;;;18.40;99.10;;;;;;5092973;28;20222;-46
2021/03/13 06:25:39;;;;;;;1999.90;999.90;;;18.40;98.50;;;;;;5092996;28;20168;-59
2021/03/13 06:28:19;;;;;;;1999.90;999.90;;;18.40;98.50;;;;;;5093062;28;20644;-45
2021/03/13 06:31:03;;;;;;;1999.90;999.90;;;18.50;98.40;;;;;;5092664;28;20175;-44
2021/03/13 06:33:32;;;;;;;1999.90;999.90;;;18.60;97.80;;;;;;5092790;28;20729;-45
2021/03/13 06:36:05;;;;;;;1999.90;999.90;;;18.70;97.30;;;;;;5093161;28;20188;-48
2021/03/13 06:38:34;;;;;;;1999.90;999.90;;;18.80;96.20;;;;;;5092994;28;20168;-45
2021/03/13 06:41:17;;;;;;;1999.90;999.90;;;18.90;95.60;;;;;;5092987;28;20225;-44
2021/03/13 06:43:46;;;;;;;1999.90;999.90;;;19.10;95.30;;;;;;5092603;28;20207;-54
2021/03/13 06:46:18;;;;;;;1999.90;999.90;;;19.20;94.40;;;;;;5092769;28;20614;-45
2021/03/13 06:48:47;;;;;;;1999.90;999.90;;;19.30;94.40;;;;;;5092751;28;20259;-54
2021/03/13 06:51:17;;;;;;;1999.90;999.90;;;19.50;93.70;;;;;;5092815;28;20550;-45
2021/03/13 06:53:46;;;;;;;1999.90;999.90;;;19.70;92.40;;;;;;5092606;28;20539;-58
2021/03/13 06:56:14;;;;;;;1999.90;999.90;;;19.80;92.60;;;;;;5092793;28;20199;-44
2021/03/13 06:58:41;;;;;;;1999.90;999.90;;;19.90;92.80;;;;;;5092572;28;20179;-44
2021/03/13 07:01:09;;;;;;;1999.90;999.90;;;20.20;92.50;;;;;;5092537;28;20536;-45
2021/03/13 07:03:56;;;;;;;1999.90;999.90;;;20.30;91.60;;;;;;5092691;28;20202;-44
2021/03/13 07:06:24;;;;;;;1999.90;999.90;;;20.40;91.50;;;;;;5092609;28;20180;-44
2021/03/13 07:08:54;;;;;;;1999.90;999.90;;;20.50;91.30;;;;;;5092604;28;20190;-45
2021/03/13 07:11:24;;;;;;;1999.90;999.90;;;20.60;91.20;;;;;;5096112;28;20189;-44
2021/03/13 07:13:57;;;;;;;1999.90;999.90;;;20.70;90.50;;;;;;5096393;28;20167;-44
2021/03/13 07:16:24;;;;;;;1999.90;999.90;;;20.80;90.20;;;;;;5096576;28;20168;-46
2021/03/13 07:18:53;;;;;;;1999.90;999.90;;;20.90;89.40;;;;;;5096277;28;20195;-44
2021/03/13 07:21:21;;;;;;;1999.90;999.90;;;20.90;90.10;;;;;;5096116;28;20261;-53
2021/03/13 07:24:13;;;;;;;1999.90;999.90;;;21.00;90.20;;;;;;5096055;28;20210;-57
2021/03/13 07:26:43;;;;;;;1999.90;999.90;;;21.00;90.00;;;;;;5096001;28;20201;-49
2021/03/13 07:29:11;;;;;;;1999.90;999.90;;;21.20;88.80;;;;;;5095951;28;20654;-44
2021/03/13 07:31:40;;;;;;;1999.90;999.90;;;21.30;87.70;;;;;;5096150;28;20162;-50
2021/03/13 07:34:18;;;;;;;1999.90;999.90;;;21.40;88.50;;;;;;5095667;28;20238;-50
2021/03/13 07:36:57;;;;;;;1999.90;999.90;;;21.40;87.90;;;;;;5095797;28;20231;-46
2021/03/13 07:39:29;;;;;;;1999.90;999.90;;;21.50;86.40;;;;;;5095874;28;20521;-45
2021/03/13 07:41:59;;;;;;;1999.90;999.90;;;21.60;86.30;;;;;;5095712;28;20192;-45
2021/03/13 07:44:26;;;;;;;1999.90;999.90;;;21.70;86.60;;;;;;5095742;28;20594;-58
2021/03/13 07:46:54;;;;;;;1999.90;999.90;;;21.90;85.80;;;;;;5095670;28;20192;-45
2021/03/13 07:49:21;;;;;;;1999.90;999.90;;;22.10;85.20;;;;;;5095678;28;20217;-45
2021/03/13 07:51:48;;;;;;;1999.90;999.90;;;22.20;83.20;;;;;;5095485;28;20167;-44
2021/03/13 07:54:16;;;;;;;1999.90;999.90;;;22.30;83.60;;;;;;5095625;28;20691;-46
2021/03/13 07:56:44;;;;;;;1999.90;999.90;;;22.50;82.40;;;;;;5095498;28;20160;-51
2021/03/13 07:59:41;;;;;;;1999.90;999.90;;;22.80;81.90;;;;;;5095563;28;20250;-57
2021/03/13 08:13:52;;;;;;;1999.90;999.90;;;23.20;78.10;;;;;;5151980;27;20522;-42
2021/03/13 08:16:35;;;;;;;1999.90;999.90;;;24.30;75.40;;;;;;5151938;27;20615;-43
2021/03/13 08:19:02;;;;;;;1999.90;999.90;;;24.80;72.20;;;;;;5151894;27;20195;-42
2021/03/13 08:21:35;;;;;;;1999.90;999.90;;;25.40;69.10;;;;;;5151586;27;20201;-43
2021/03/13 08:24:03;;;;;;;1999.90;999.90;;;25.60;68.10;;;;;;5151626;27;20516;-43
2021/03/13 08:26:35;;;;;;;1999.90;999.90;;;26.10;66.60;;;;;;5151767;27;20161;-43
2021/03/13 08:29:09;;;;;;;1999.90;999.90;;;26.40;63.30;;;;;;5151406;27;20204;-44
2021/03/13 08:31:38;;;;;;;1999.90;999.90;;;26.50;63.50;;;;;;5151371;27;20178;-42
2021/03/13 08:34:08;;;;;;;1999.90;999.90;;;26.10;63.90;;;;;;5151574;27;20166;-43
2021/03/13 08:36:47;;;;;;;1999.90;999.90;;;26.80;62.40;;;;;;5151266;27;20508;-42
2021/03/13 08:39:20;;;;;;;1999.90;999.90;;;27.30;59.10;;;;;;5151359;27;20158;-44
2021/03/13 08:41:49;;;;;;;1999.90;999.90;;;27.30;58.20;;;;;;5151243;27;20719;-46
2021/03/13 08:44:29;;;;;;;1999.90;999.90;;;27.10;59.30;;;;;;5151219;27;20655;-43
2021/03/13 08:47:12;;;;;;;1999.90;999.90;;;27.40;57.60;;;;;;5151181;27;20532;-43
2021/03/13 08:49:46;;;;;;;1999.90;999.90;;;27.50;56.00;;;;;;5151071;27;20177;-43
2021/03/13 08:52:18;;;;;;;1999.90;999.90;;;27.60;55.00;;;;;;5150975;27;20158;-53
2021/03/13 08:54:48;;;;;;;1999.90;999.90;;;27.90;53.70;;;;;;5151038;27;20166;-45
2021/03/13 08:57:16;;;;;;;1999.90;999.90;;;28.00;53.00;;;;;;5150902;27;20177;-44
2021/03/13 08:59:57;;;;;;;1999.90;999.90;;;28.10;52.90;;;;;;5150987;27;20230;-47
2021/03/13 09:02:29;;;;;;;1999.90;999.90;;;28.00;52.70;;;;;;5150813;27;20262;-44
2021/03/13 09:05:04;;;;;;;1999.90;999.90;;;28.60;51.00;;;;;;5150725;27;20249;-43
2021/03/13 09:07:31;;;;;;;1999.90;999.90;;;28.70;50.60;;;;;;5150794;27;20157;-43
2021/03/13 09:09:58;;;;;;;1999.90;999.90;;;28.10;51.80;;;;;;5150496;27;20173;-47
2021/03/13 09:12:28;;;;;;;1999.90;999.90;;;28.10;51.30;;;;;;5150184;27;20217;-43
2021/03/13 09:14:57;;;;;;;1999.90;999.90;;;28.60;49.60;;;;;;5136284;27;20203;-43
2021/03/13 09:17:26;;;;;;;1999.90;999.90;;;29.00;49.20;;;;;;5136701;27;20219;-43
2021/03/13 09:19:54;;;;;;;1999.90;999.90;;;29.50;47.40;;;;;;5136751;27;20207;-47
2021/03/13 09:22:27;;;;;;;1999.90;999.90;;;29.20;49.70;;;;;;5136650;27;20195;-56
2021/03/13 09:24:59;;;;;;;1999.90;999.90;;;28.90;50.60;;;;;;5136759;27;20157;-43
2021/03/13 09:27:29;;;;;;;1999.90;999.90;;;29.70;49.00;;;;;;5136856;27;20167;-44
2021/03/13 09:29:58;;;;;;;1999.90;999.90;;;29.60;48.20;;;;;;5136542;27;20242;-44
2021/03/13 09:32:27;;;;;;;1999.90;999.90;;;29.50;47.50;;;;;;5136625;27;20219;-44
2021/03/13 09:34:56;;;;;;;1999.90;999.90;;;29.40;45.30;;;;;;5136471;27;20628;-44
2021/03/13 09:37:30;;;;;;;1999.90;999.90;;;28.90;46.20;;;;;;5136467;27;20174;-44
2021/03/13 09:40:08;;;;;;;1999.90;999.90;;;29.20;47.40;;;;;;5136315;27;20158;-44
2021/03/13 09:42:37;;;;;;;1999.90;999.90;;;29.40;48.50;;;;;;5136342;27;20202;-44
2021/03/13 09:45:06;;;;;;;1999.90;999.90;;;29.50;47.20;;;;;;5136321;27;20188;-58
2021/03/13 09:47:44;;;;;;;1999.90;999.90;;;29.50;47.90;;;;;;5136382;27;20209;-43
2021/03/13 09:50:19;;;;;;;1999.90;999.90;;;29.00;49.20;;;;;;5136153;27;20651;-58
2021/03/13 09:52:48;;;;;;;1999.90;999.90;;;29.20;48.20;;;;;;5135993;27;20166;-45
2021/03/13 09:55:17;;;;;;;1999.90;999.90;;;29.20;48.40;;;;;;5135992;27;20620;-44
2021/03/13 09:57:53;;;;;;;1999.90;999.90;;;29.40;48.20;;;;;;5134785;27;20170;-43
2021/03/13 10:00:25;;;;;;;1999.90;999.90;;;28.70;49.30;;;;;;5136252;27;20503;-44
2021/03/13 10:02:54;;;;;;;1999.90;999.90;;;28.40;51.60;;;;;;5135680;27;20198;-57
2021/03/13 10:05:23;;;;;;;1999.90;999.90;;;28.40;52.10;;;;;;5135474;27;20208;-57
2021/03/13 10:07:52;;;;;;;1999.90;999.90;;;28.50;51.90;;;;;;5135884;27;20724;-43
2021/03/13 10:10:21;;;;;;;1999.90;999.90;;;29.00;51.50;;;;;;5135653;27;20189;-43
2021/03/13 10:24:10;;;;;;;1999.90;999.90;;;29.20;50.40;;;;;;5110666;27;20540;-45
2021/03/13 10:26:37;;;;;;;1999.90;999.90;;;28.40;51.20;;;;;;5110596;28;20175;-42
2021/03/13 10:29:04;;;;;;;1999.90;999.90;;;28.50;52.10;;;;;;5110567;28;20191;-42
2021/03/13 10:31:31;;;;;;;1999.90;999.90;;;28.50;52.50;;;;;;5110466;28;20209;-44
2021/03/13 10:33:58;;;;;;;1999.90;999.90;;;28.50;52.60;;;;;;5110460;28;20220;-45
2021/03/13 10:36:44;;;;;;;1999.90;999.90;;;28.30;52.50;;;;;;5110594;28;20173;-45
2021/03/13 10:39:11;;;;;;;1999.90;999.90;;;28.30;53.40;;;;;;5110288;28;20254;-45
2021/03/13 10:41:48;;;;;;;1999.90;999.90;;;28.60;53.40;;;;;;5110291;28;20175;-42
2021/03/13 10:44:17;;;;;;;1999.90;999.90;;;28.50;53.00;;;;;;5110215;28;20155;-42
2021/03/13 10:46:44;;;;;;;1999.90;999.90;;;28.80;52.40;;;;;;5110313;28;20194;-47
2021/03/13 10:49:12;;;;;;;1999.90;999.90;;;28.20;51.70;;;;;;5110275;28;20174;-47
2021/03/13 10:51:45;;;;;;;1999.90;999.90;;;28.50;52.60;;;;;;5110393;28;20552;-55
2021/03/13 10:54:24;;;;;;;1999.90;999.90;;;28.60;53.20;;;;;;5110014;28;20503;-58
2021/03/13 10:56:52;;;;;;;1999.90;999.90;;;28.60;52.30;;;;;;5110137;28;20181;-44
2021/03/13 10:59:31;;;;;;;1999.90;999.90;;;28.40;53.00;;;;;;5110173;28;20629;-46
2021/03/13 11:01:58;;;;;;;1999.90;999.90;;;28.50;53.10;;;;;;5110049;28;20163;-43
2021/03/13 11:04:25;;;;;;;1999.90;999.90;;;28.60;52.80;;;;;;5109871;28;20246;-46
2021/03/13 11:06:55;;;;;;;1999.90;999.90;;;28.90;52.10;;;;;;5109793;28;20270;-44
2021/03/13 11:09:25;;;;;;;1999.90;999.90;;;29.00;51.90;;;;;;5109753;28;20167;-48
2021/03/13 11:11:52;;;;;;;1999.90;999.90;;;29.00;50.00;;;;;;5109535;28;20212;-46
2021/03/13 11:14:19;;;;;;;1999.90;999.90;;;29.00;51.00;;;;;;5109691;28;20254;-45
2021/03/13 11:16:46;;;;;;;1999.90;999.90;;;28.90;50.00;;;;;;5109574;28;20179;-44
2021/03/13 11:19:14;;;;;;;1999.90;999.90;;;28.70;52.20;;;;;;5109607;28;20167;-58
2021/03/13 11:21:41;;;;;;;1999.90;999.90;;;28.80;52.30;;;;;;5109464;28;20210;-45
2021/03/13 11:24:08;;;;;;;1999.90;999.90;;;28.80;51.50;;;;;;5101227;28;20184;-45
2021/03/13 11:26:35;;;;;;;1999.90;999.90;;;28.60;51.90;;;;;;5095883;28;20188;-44
2021/03/13 11:29:05;;;;;;;1999.90;999.90;;;28.10;53.10;;;;;;5095718;28;20646;-44
2021/03/13 11:31:33;;;;;;;1999.90;999.90;;;28.00;53.40;;;;;;5095715;28;20179;-44
2021/03/13 11:33:59;;;;;;;1999.90;999.90;;;27.90;53.70;;;;;;5095833;28;20203;-46
2021/03/13 11:36:28;;;;;;;1999.90;999.90;;;27.80;53.20;;;;;;5095834;28;20257;-44
2021/03/13 11:38:55;;;;;;;1999.90;999.90;;;27.70;54.30;;;;;;5095303;28;20195;-45
2021/03/13 11:41:22;;;;;;;1999.90;999.90;;;27.60;54.00;;;;;;5095540;28;20164;-58
2021/03/13 11:43:49;;;;;;;1999.90;999.90;;;27.50;53.50;;;;;;5095542;28;20194;-43
2021/03/13 11:46:17;;;;;;;1999.90;999.90;;;27.20;54.10;;;;;;5095502;28;20214;-44
2021/03/13 11:48:44;;;;;;;1999.90;999.90;;;27.00;56.20;;;;;;5095426;28;20634;-52
2021/03/13 11:51:12;;;;;;;1999.90;999.90;;;27.30;55.00;;;;;;5095373;28;20181;-44
2021/03/13 11:53:39;;;;;;;1999.90;999.90;;;27.60;53.80;;;;;;5095288;28;20204;-43
2021/03/13 11:56:06;;;;;;;1999.90;999.90;;;27.90;54.50;;;;;;5095296;28;20172;-44
2021/03/13 11:58:33;;;;;;;1999.90;999.90;;;28.40;53.20;;;;;;5095035;28;20197;-44
2021/03/13 12:01:00;;;;;;;1999.90;999.90;;;28.80;52.20;;;;;;5094969;28;20233;-58
2021/03/13 12:03:27;;;;;;;1999.90;999.90;;;29.40;50.70;;;;;;5094995;28;20160;-43
2021/03/13 12:05:54;;;;;;;1999.90;999.90;;;29.60;48.70;;;;;;5095032;28;20163;-44
2021/03/13 12:08:21;;;;;;;1999.90;999.90;;;29.90;48.50;;;;;;5095095;28;20178;-44
2021/03/13 12:10:48;;;;;;;1999.90;999.90;;;30.00;48.20;;;;;;5095013;28;20189;-46
2021/03/13 12:13:14;;;;;;;1999.90;999.90;;;29.60;48.70;;;;;;5094926;28;20199;-46
2021/03/13 12:15:42;;;;;;;1999.90;999.90;;;29.50;50.50;;;;;;5094850;28;20171;-43
2021/03/13 12:18:10;;;;;;;1999.90;999.90;;;29.40;50.30;;;;;;5094847;28;20176;-44
2021/03/13 12:20:37;;;;;;;1999.90;999.90;;;29.00;49.40;;;;;;5094798;28;20206;-44
2021/03/13 12:23:05;;;;;;;1999.90;999.90;;;28.80;49.90;;;;;;5094620;28;20600;-44
2021/03/13 12:25:32;;;;;;;1999.90;999.90;;;28.60;50.60;;;;;;5094810;28;20175;-44
2021/03/13 12:27:59;;;;;;;1999.90;999.90;;;28.40;50.20;;;;;;5095108;28;20168;-46
2021/03/13 12:30:26;;;;;;;1999.90;999.90;;;27.90;51.50;;;;;;5094476;28;20191;-45
2021/03/13 12:32:54;;;;;;;1999.90;999.90;;;27.70;52.50;;;;;;5094100;28;20196;-44
2021/03/13 12:35:21;;;;;;;1999.90;999.90;;;27.40;51.90;;;;;;5093444;28;20172;-44
2021/03/13 12:37:48;;;;;;;1999.90;999.90;;;27.20;52.30;;;;;;5094259;28;20767;-45
2021/03/13 12:40:15;;;;;;;1999.90;999.90;;;27.10;53.00;;;;;;5094334;28;20220;-44
2021/03/13 12:42:42;;;;;;;1999.90;999.90;;;27.10;52.80;;;;;;5094468;28;20175;-43
2021/03/13 12:45:09;;;;;;;1999.90;999.90;;;27.10;54.00;;;;;;5094233;28;20251;-44
2021/03/13 12:47:36;;;;;;;1999.90;999.90;;;26.90;53.90;;;;;;5094342;28;20622;-45
2021/03/13 12:50:05;;;;;;;1999.90;999.90;;;26.80;54.30;;;;;;5094357;28;20164;-54
2021/03/13 12:52:33;;;;;;;1999.90;999.90;;;26.70;54.60;;;;;;5094235;28;20279;-43
2021/03/13 12:54:59;;;;;;;1999.90;999.90;;;26.80;55.00;;;;;;5094155;28;20270;-43
2021/03/13 12:57:26;;;;;;;1999.90;999.90;;;26.90;53.90;;;;;;5094042;28;20172;-43